sensor_id;sensor_type;location;lat;lon;timestamp;temperature;humidity
15922;DHT22;8060;50.948;3.146;2024-01-16T00:02:19;1.40;99.90
15922;DHT22;8060;50.948;3.146;2024-01-16T00:04:47;1.40;99.90
15922;DHT22;8060;50.948;3.146;2024-01-16T00:07:15;1.40;99.90
15922;DHT22;8060;50.948;3.146;2024-01-16T00:09:44;1.30;99.90
15922;DHT22;8060;50.948;3.146;2024-01-16T00:12:12;1.30;99.90
15922;DHT22;8060;50.948;3.146;2024-01-16T00:14:40;1.30;99.90
15922;DHT22;8060;50.948;3.146;2024-01-16T00:17:09;1.20;99.90
15922;DHT22;8060;50.948;3.146;2024-01-16T00:19:40;1.20;99.90
15922;DHT22;8060;50.948;3.146;2024-01-16T00:22:08;1.20;99.90
15922;DHT22;8060;50.948;3.146;2024-01-16T00:24:36;1.20;99.90
15922;DHT22;8060;50.948;3.146;2024-01-16T00:27:04;1.10;99.90
15922;DHT22;8060;50.948;3.146;2024-01-16T00:29:37;1.10;99.90
15922;DHT22;8060;50.948;3.146;2024-01-16T00:32:05;1.10;99.90
15922;DHT22;8060;50.948;3.146;2024-01-16T00:34:33;1.00;99.90
15922;DHT22;8060;50.948;3.146;2024-01-16T00:37:03;1.00;99.90
15922;DHT22;8060;50.948;3.146;2024-01-16T00:39:32;1.00;99.90
15922;DHT22;8060;50.948;3.146;2024-01-16T00:42:00;1.00;99.90
15922;DHT22;8060;50.948;3.146;2024-01-16T00:44:28;1.00;99.90
15922;DHT22;8060;50.948;3.146;2024-01-16T00:46:57;1.10;99.90
15922;DHT22;8060;50.948;3.146;2024-01-16T00:49:28;1.10;99.90
15922;DHT22;8060;50.948;3.146;2024-01-16T00:51:56;1.10;99.90
15922;DHT22;8060;50.948;3.146;2024-01-16T00:54:26;1.10;99.90
15922;DHT22;8060;50.948;3.146;2024-01-16T00:56:54;1.00;99.90
15922;DHT22;8060;50.948;3.146;2024-01-16T00:59:26;1.00;99.90
15922;DHT22;8060;50.948;3.146;2024-01-16T01:01:54;1.10;99.90
15922;DHT22;8060;50.948;3.146;2024-01-16T01:04:22;1.10;99.90
15922;DHT22;8060;50.948;3.146;2024-01-16T01:06:50;1.00;99.90
15922;DHT22;8060;50.948;3.146;2024-01-16T01:09:19;1.10;99.90
15922;DHT22;8060;50.948;3.146;2024-01-16T01:11:48;1.10;99.90
15922;DHT22;8060;50.948;3.146;2024-01-16T01:14:16;1.20;99.90
15922;DHT22;8060;50.948;3.146;2024-01-16T01:16:45;1.10;99.90
15922;DHT22;8060;50.948;3.146;2024-01-16T01:19:13;1.10;99.90
15922;DHT22;8060;50.948;3.146;2024-01-16T01:21:41;1.10;99.90
15922;DHT22;8060;50.948;3.146;2024-01-16T01:24:09;1.00;99.90
15922;DHT22;8060;50.948;3.146;2024-01-16T01:26:37;1.10;99.90
15922;DHT22;8060;50.948;3.146;2024-01-16T01:29:08;1.10;99.90
15922;DHT22;8060;50.948;3.146;2024-01-16T01:31:36;1.00;99.90
15922;DHT22;8060;50.948;3.146;2024-01-16T01:34:04;1.00;99.90
15922;DHT22;8060;50.948;3.146;2024-01-16T01:36:32;1.00;99.90
15922;DHT22;8060;50.948;3.146;2024-01-16T01:39:00;1.00;99.90
15922;DHT22;8060;50.948;3.146;2024-01-16T01:41:30;1.00;99.90
15922;DHT22;8060;50.948;3.146;2024-01-16T01:43:58;1.00;99.90
15922;DHT22;8060;50.948;3.146;2024-01-16T01:46:27;1.00;99.90
15922;DHT22;8060;50.948;3.146;2024-01-16T01:48:56;0.90;99.90
15922;DHT22;8060;50.948;3.146;2024-01-16T01:51:24;0.80;99.90
15922;DHT22;8060;50.948;3.146;2024-01-16T01:53:53;0.80;99.90
15922;DHT22;8060;50.948;3.146;2024-01-16T01:56:21;0.90;99.90
15922;DHT22;8060;50.948;3.146;2024-01-16T01:58:54;0.80;99.90
15922;DHT22;8060;50.948;3.146;2024-01-16T02:01:27;0.80;99.90
15922;DHT22;8060;50.948;3.146;2024-01-16T02:03:57;0.80;99.90
15922;DHT22;8060;50.948;3.146;2024-01-16T02:06:26;0.80;99.90
15922;DHT22;8060;50.948;3.146;2024-01-16T02:08:55;0.80;99.90
15922;DHT22;8060;50.948;3.146;2024-01-16T02:11:23;0.80;99.90
15922;DHT22;8060;50.948;3.146;2024-01-16T02:13:51;0.70;99.90
15922;DHT22;8060;50.948;3.146;2024-01-16T02:16:20;0.70;99.90
15922;DHT22;8060;50.948;3.146;2024-01-16T02:18:50;0.80;99.90
15922;DHT22;8060;50.948;3.146;2024-01-16T02:21:21;0.80;99.90
15922;DHT22;8060;50.948;3.146;2024-01-16T02:23:51;0.80;99.90
15922;DHT22;8060;50.948;3.146;2024-01-16T02:26:20;0.80;99.90
15922;DHT22;8060;50.948;3.146;2024-01-16T02:28:48;0.70;99.90
15922;DHT22;8060;50.948;3.146;2024-01-16T02:31:17;0.70;99.90
15922;DHT22;8060;50.948;3.146;2024-01-16T02:33:45;0.70;99.90
15922;DHT22;8060;50.948;3.146;2024-01-16T02:36:14;0.80;99.90
15922;DHT22;8060;50.948;3.146;2024-01-16T02:38:42;0.70;99.90
15922;DHT22;8060;50.948;3.146;2024-01-16T02:41:15;0.70;99.90
15922;DHT22;8060;50.948;3.146;2024-01-16T02:43:44;0.70;99.90
15922;DHT22;8060;50.948;3.146;2024-01-16T02:46:12;0.70;99.90
15922;DHT22;8060;50.948;3.146;2024-01-16T02:48:40;0.60;99.90
15922;DHT22;8060;50.948;3.146;2024-01-16T02:51:09;0.60;99.90
15922;DHT22;8060;50.948;3.146;2024-01-16T02:53:37;0.60;99.90
15922;DHT22;8060;50.948;3.146;2024-01-16T02:56:06;0.60;99.90
15922;DHT22;8060;50.948;3.146;2024-01-16T02:58:37;0.60;99.90
15922;DHT22;8060;50.948;3.146;2024-01-16T03:01:05;0.60;99.90
15922;DHT22;8060;50.948;3.146;2024-01-16T03:03:34;0.50;99.90
15922;DHT22;8060;50.948;3.146;2024-01-16T03:06:03;0.50;99.90
15922;DHT22;8060;50.948;3.146;2024-01-16T03:08:31;0.50;99.90
15922;DHT22;8060;50.948;3.146;2024-01-16T03:10:59;0.50;99.90
15922;DHT22;8060;50.948;3.146;2024-01-16T03:13:28;0.50;99.90
15922;DHT22;8060;50.948;3.146;2024-01-16T03:15:57;0.50;99.90
15922;DHT22;8060;50.948;3.146;2024-01-16T03:18:25;0.50;99.90
15922;DHT22;8060;50.948;3.146;2024-01-16T03:20:54;0.40;99.90
15922;DHT22;8060;50.948;3.146;2024-01-16T03:23:22;0.40;99.90
15922;DHT22;8060;50.948;3.146;2024-01-16T03:25:50;0.40;99.90
15922;DHT22;8060;50.948;3.146;2024-01-16T03:28:18;0.40;99.90
15922;DHT22;8060;50.948;3.146;2024-01-16T03:30:47;0.50;99.90
15922;DHT22;8060;50.948;3.146;2024-01-16T03:33:17;0.40;99.90
15922;DHT22;8060;50.948;3.146;2024-01-16T03:35:45;0.40;99.90
15922;DHT22;8060;50.948;3.146;2024-01-16T03:38:14;0.40;99.90
15922;DHT22;8060;50.948;3.146;2024-01-16T03:40:42;0.50;99.90
15922;DHT22;8060;50.948;3.146;2024-01-16T03:43:10;0.50;99.90
15922;DHT22;8060;50.948;3.146;2024-01-16T03:45:39;0.50;99.90
15922;DHT22;8060;50.948;3.146;2024-01-16T03:48:07;0.50;99.90
15922;DHT22;8060;50.948;3.146;2024-01-16T03:50:36;0.50;99.90
15922;DHT22;8060;50.948;3.146;2024-01-16T03:53:04;0.50;99.90
15922;DHT22;8060;50.948;3.146;2024-01-16T03:55:33;0.60;99.90
15922;DHT22;8060;50.948;3.146;2024-01-16T03:58:01;0.50;99.90
15922;DHT22;8060;50.948;3.146;2024-01-16T04:00:29;0.60;99.90
15922;DHT22;8060;50.948;3.146;2024-01-16T04:02:57;0.60;99.90
15922;DHT22;8060;50.948;3.146;2024-01-16T04:05:25;0.60;99.90
15922;DHT22;8060;50.948;3.146;2024-01-16T04:07:57;0.60;99.90
15922;DHT22;8060;50.948;3.146;2024-01-16T04:10:25;0.60;99.90
15922;DHT22;8060;50.948;3.146;2024-01-16T04:12:53;0.50;99.90
15922;DHT22;8060;50.948;3.146;2024-01-16T04:15:22;0.60;99.90
15922;DHT22;8060;50.948;3.146;2024-01-16T04:17:50;0.60;99.90
15922;DHT22;8060;50.948;3.146;2024-01-16T04:20:18;0.60;99.90
15922;DHT22;8060;50.948;3.146;2024-01-16T04:22:46;0.70;99.90
15922;DHT22;8060;50.948;3.146;2024-01-16T04:25:16;0.70;99.90
15922;DHT22;8060;50.948;3.146;2024-01-16T04:27:44;0.70;99.90
15922;DHT22;8060;50.948;3.146;2024-01-16T04:30:13;0.70;99.90
15922;DHT22;8060;50.948;3.146;2024-01-16T04:32:41;0.70;99.90
15922;DHT22;8060;50.948;3.146;2024-01-16T04:35:09;0.70;99.90
15922;DHT22;8060;50.948;3.146;2024-01-16T04:37:38;0.60;99.90
15922;DHT22;8060;50.948;3.146;2024-01-16T04:40:06;0.60;99.90
15922;DHT22;8060;50.948;3.146;2024-01-16T04:42:36;0.60;99.90
15922;DHT22;8060;50.948;3.146;2024-01-16T04:45:05;0.60;99.90
15922;DHT22;8060;50.948;3.146;2024-01-16T04:47:33;0.60;99.90
15922;DHT22;8060;50.948;3.146;2024-01-16T04:50:01;0.60;99.90
15922;DHT22;8060;50.948;3.146;2024-01-16T04:52:30;0.60;99.90
15922;DHT22;8060;50.948;3.146;2024-01-16T04:54:58;0.70;99.90
15922;DHT22;8060;50.948;3.146;2024-01-16T04:57:27;0.70;99.90
15922;DHT22;8060;50.948;3.146;2024-01-16T04:59:56;0.60;99.90
15922;DHT22;8060;50.948;3.146;2024-01-16T05:02:25;0.70;99.90
15922;DHT22;8060;50.948;3.146;2024-01-16T05:04:53;0.60;99.90
15922;DHT22;8060;50.948;3.146;2024-01-16T05:07:23;0.60;99.90
15922;DHT22;8060;50.948;3.146;2024-01-16T05:09:51;0.70;99.90
15922;DHT22;8060;50.948;3.146;2024-01-16T05:12:20;0.70;99.90
15922;DHT22;8060;50.948;3.146;2024-01-16T05:14:49;0.70;99.90
15922;DHT22;8060;50.948;3.146;2024-01-16T05:17:19;0.80;99.90
15922;DHT22;8060;50.948;3.146;2024-01-16T05:19:47;0.80;99.90
15922;DHT22;8060;50.948;3.146;2024-01-16T05:22:15;0.80;99.90
15922;DHT22;8060;50.948;3.146;2024-01-16T05:24:43;0.80;99.90
15922;DHT22;8060;50.948;3.146;2024-01-16T05:27:11;0.80;99.90
15922;DHT22;8060;50.948;3.146;2024-01-16T05:29:41;0.80;99.90
15922;DHT22;8060;50.948;3.146;2024-01-16T05:32:11;0.80;99.90
15922;DHT22;8060;50.948;3.146;2024-01-16T05:34:41;0.80;99.90
15922;DHT22;8060;50.948;3.146;2024-01-16T05:37:09;0.70;99.90
15922;DHT22;8060;50.948;3.146;2024-01-16T05:39:37;0.80;99.90
15922;DHT22;8060;50.948;3.146;2024-01-16T05:42:05;0.80;99.90
15922;DHT22;8060;50.948;3.146;2024-01-16T05:44:34;0.90;99.90
15922;DHT22;8060;50.948;3.146;2024-01-16T05:47:02;0.90;99.90
15922;DHT22;8060;50.948;3.146;2024-01-16T05:49:30;0.90;99.90
15922;DHT22;8060;50.948;3.146;2024-01-16T05:52:00;0.90;99.90
15922;DHT22;8060;50.948;3.146;2024-01-16T05:54:28;0.90;99.90
15922;DHT22;8060;50.948;3.146;2024-01-16T05:56:56;0.80;99.90
15922;DHT22;8060;50.948;3.146;2024-01-16T05:59:24;0.80;99.90
15922;DHT22;8060;50.948;3.146;2024-01-16T06:01:53;0.80;99.90
15922;DHT22;8060;50.948;3.146;2024-01-16T06:04:21;0.80;99.90
15922;DHT22;8060;50.948;3.146;2024-01-16T06:06:49;0.80;99.90
15922;DHT22;8060;50.948;3.146;2024-01-16T06:09:18;0.80;99.90
15922;DHT22;8060;50.948;3.146;2024-01-16T06:11:46;0.70;99.90
15922;DHT22;8060;50.948;3.146;2024-01-16T06:14:18;0.70;99.90
15922;DHT22;8060;50.948;3.146;2024-01-16T06:16:49;0.70;99.90
15922;DHT22;8060;50.948;3.146;2024-01-16T06:19:18;0.70;99.90
15922;DHT22;8060;50.948;3.146;2024-01-16T06:21:46;0.70;99.90
15922;DHT22;8060;50.948;3.146;2024-01-16T06:24:14;0.60;99.90
15922;DHT22;8060;50.948;3.146;2024-01-16T06:26:44;0.60;99.90
15922;DHT22;8060;50.948;3.146;2024-01-16T06:29:12;0.70;99.90
15922;DHT22;8060;50.948;3.146;2024-01-16T06:31:54;0.70;99.90
15922;DHT22;8060;50.948;3.146;2024-01-16T06:34:22;0.70;99.90
15922;DHT22;8060;50.948;3.146;2024-01-16T06:36:51;0.60;99.90
15922;DHT22;8060;50.948;3.146;2024-01-16T06:39:22;0.60;99.90
15922;DHT22;8060;50.948;3.146;2024-01-16T06:41:51;0.60;99.90
15922;DHT22;8060;50.948;3.146;2024-01-16T06:44:20;0.60;99.90
15922;DHT22;8060;50.948;3.146;2024-01-16T06:46:48;0.60;99.90
15922;DHT22;8060;50.948;3.146;2024-01-16T06:49:16;0.60;99.90
15922;DHT22;8060;50.948;3.146;2024-01-16T06:51:44;0.50;99.90
15922;DHT22;8060;50.948;3.146;2024-01-16T06:54:12;0.50;99.90
15922;DHT22;8060;50.948;3.146;2024-01-16T06:56:40;0.50;99.90
15922;DHT22;8060;50.948;3.146;2024-01-16T06:59:10;0.50;99.90
15922;DHT22;8060;50.948;3.146;2024-01-16T07:01:38;0.40;99.90
15922;DHT22;8060;50.948;3.146;2024-01-16T07:04:06;0.40;99.90
15922;DHT22;8060;50.948;3.146;2024-01-16T07:06:34;0.40;99.90
15922;DHT22;8060;50.948;3.146;2024-01-16T07:09:02;0.30;99.90
15922;DHT22;8060;50.948;3.146;2024-01-16T07:11:32;0.30;99.90
15922;DHT22;8060;50.948;3.146;2024-01-16T07:14:00;0.30;99.90
15922;DHT22;8060;50.948;3.146;2024-01-16T07:16:30;0.30;99.90
15922;DHT22;8060;50.948;3.146;2024-01-16T07:18:58;0.30;99.90
15922;DHT22;8060;50.948;3.146;2024-01-16T07:21:26;0.30;99.90
15922;DHT22;8060;50.948;3.146;2024-01-16T07:23:55;0.30;99.90
15922;DHT22;8060;50.948;3.146;2024-01-16T07:26:24;0.30;99.90
15922;DHT22;8060;50.948;3.146;2024-01-16T07:28:52;0.30;99.90
15922;DHT22;8060;50.948;3.146;2024-01-16T07:31:20;0.30;99.90
15922;DHT22;8060;50.948;3.146;2024-01-16T07:33:49;0.30;99.90
15922;DHT22;8060;50.948;3.146;2024-01-16T07:36:18;0.30;99.90
15922;DHT22;8060;50.948;3.146;2024-01-16T07:38:46;0.30;99.90
15922;DHT22;8060;50.948;3.146;2024-01-16T07:41:14;0.30;99.90
15922;DHT22;8060;50.948;3.146;2024-01-16T07:43:43;0.30;99.90
15922;DHT22;8060;50.948;3.146;2024-01-16T07:46:15;0.30;99.90
15922;DHT22;8060;50.948;3.146;2024-01-16T07:48:44;0.30;99.90
15922;DHT22;8060;50.948;3.146;2024-01-16T07:51:14;0.30;99.90
15922;DHT22;8060;50.948;3.146;2024-01-16T07:53:42;0.30;99.90
15922;DHT22;8060;50.948;3.146;2024-01-16T07:56:10;0.30;99.90
15922;DHT22;8060;50.948;3.146;2024-01-16T07:58:39;0.40;99.90
15922;DHT22;8060;50.948;3.146;2024-01-16T08:01:07;0.40;99.90
15922;DHT22;8060;50.948;3.146;2024-01-16T08:03:35;0.40;99.90
15922;DHT22;8060;50.948;3.146;2024-01-16T08:06:04;0.40;99.90
15922;DHT22;8060;50.948;3.146;2024-01-16T08:08:34;0.50;99.90
15922;DHT22;8060;50.948;3.146;2024-01-16T08:11:02;0.50;99.90
15922;DHT22;8060;50.948;3.146;2024-01-16T08:13:30;0.50;99.90
15922;DHT22;8060;50.948;3.146;2024-01-16T08:15:59;0.50;99.90
15922;DHT22;8060;50.948;3.146;2024-01-16T08:18:27;0.60;99.90
15922;DHT22;8060;50.948;3.146;2024-01-16T08:20:55;0.60;99.90
15922;DHT22;8060;50.948;3.146;2024-01-16T08:23:23;0.60;99.90
15922;DHT22;8060;50.948;3.146;2024-01-16T08:25:53;0.60;99.90
15922;DHT22;8060;50.948;3.146;2024-01-16T08:28:21;0.60;99.90
15922;DHT22;8060;50.948;3.146;2024-01-16T08:30:50;0.60;99.90
15922;DHT22;8060;50.948;3.146;2024-01-16T08:33:19;0.70;99.90
15922;DHT22;8060;50.948;3.146;2024-01-16T08:35:59;0.70;99.90
15922;DHT22;8060;50.948;3.146;2024-01-16T08:38:28;0.70;99.90
15922;DHT22;8060;50.948;3.146;2024-01-16T08:40:57;0.70;99.90
15922;DHT22;8060;50.948;3.146;2024-01-16T08:43:25;0.70;99.90
15922;DHT22;8060;50.948;3.146;2024-01-16T08:45:53;0.80;99.90
15922;DHT22;8060;50.948;3.146;2024-01-16T08:48:22;0.80;99.90
15922;DHT22;8060;50.948;3.146;2024-01-16T08:50:51;0.90;99.90
15922;DHT22;8060;50.948;3.146;2024-01-16T08:53:21;0.90;99.90
15922;DHT22;8060;50.948;3.146;2024-01-16T08:55:50;1.10;99.90
15922;DHT22;8060;50.948;3.146;2024-01-16T08:58:20;1.10;99.90
15922;DHT22;8060;50.948;3.146;2024-01-16T09:00:48;1.10;99.90
15922;DHT22;8060;50.948;3.146;2024-01-16T09:03:16;1.10;99.90
15922;DHT22;8060;50.948;3.146;2024-01-16T09:05:45;1.20;99.90
15922;DHT22;8060;50.948;3.146;2024-01-16T09:08:13;1.20;99.90
15922;DHT22;8060;50.948;3.146;2024-01-16T09:10:41;1.20;99.90
15922;DHT22;8060;50.948;3.146;2024-01-16T09:13:09;1.30;99.90
15922;DHT22;8060;50.948;3.146;2024-01-16T09:15:39;1.30;99.90
15922;DHT22;8060;50.948;3.146;2024-01-16T09:18:08;1.30;99.90
15922;DHT22;8060;50.948;3.146;2024-01-16T09:20:36;1.30;99.90
15922;DHT22;8060;50.948;3.146;2024-01-16T09:23:04;1.40;99.90
15922;DHT22;8060;50.948;3.146;2024-01-16T09:25:33;1.30;99.90
15922;DHT22;8060;50.948;3.146;2024-01-16T09:28:02;1.30;99.90
15922;DHT22;8060;50.948;3.146;2024-01-16T09:30:30;1.30;99.90
15922;DHT22;8060;50.948;3.146;2024-01-16T09:33:00;1.40;99.90
15922;DHT22;8060;50.948;3.146;2024-01-16T09:35:30;1.50;99.90
15922;DHT22;8060;50.948;3.146;2024-01-16T09:37:58;1.50;99.90
15922;DHT22;8060;50.948;3.146;2024-01-16T09:40:26;1.60;99.90
15922;DHT22;8060;50.948;3.146;2024-01-16T09:42:55;1.60;99.90
15922;DHT22;8060;50.948;3.146;2024-01-16T09:45:24;1.80;99.90
15922;DHT22;8060;50.948;3.146;2024-01-16T09:47:54;2.00;99.90
15922;DHT22;8060;50.948;3.146;2024-01-16T09:50:24;2.20;99.90
15922;DHT22;8060;50.948;3.146;2024-01-16T09:52:52;2.30;99.90
15922;DHT22;8060;50.948;3.146;2024-01-16T09:55:24;2.50;99.90
15922;DHT22;8060;50.948;3.146;2024-01-16T09:57:53;2.70;99.90
15922;DHT22;8060;50.948;3.146;2024-01-16T10:00:21;2.90;99.90
15922;DHT22;8060;50.948;3.146;2024-01-16T10:02:50;3.20;99.90
15922;DHT22;8060;50.948;3.146;2024-01-16T10:05:19;3.40;99.90
15922;DHT22;8060;50.948;3.146;2024-01-16T10:07:49;3.50;99.90
15922;DHT22;8060;50.948;3.146;2024-01-16T10:10:19;3.70;99.90
15922;DHT22;8060;50.948;3.146;2024-01-16T10:13:04;3.90;99.90
15922;DHT22;8060;50.948;3.146;2024-01-16T10:15:32;4.30;99.90
15922;DHT22;8060;50.948;3.146;2024-01-16T10:18:01;4.50;99.90
15922;DHT22;8060;50.948;3.146;2024-01-16T10:20:33;4.70;99.90
15922;DHT22;8060;50.948;3.146;2024-01-16T10:23:03;5.10;99.90
15922;DHT22;8060;50.948;3.146;2024-01-16T10:25:31;5.60;99.90
15922;DHT22;8060;50.948;3.146;2024-01-16T10:28:03;5.70;99.90
15922;DHT22;8060;50.948;3.146;2024-01-16T10:30:32;6.00;99.90
15922;DHT22;8060;50.948;3.146;2024-01-16T10:33:13;6.40;99.90
15922;DHT22;8060;50.948;3.146;2024-01-16T10:35:42;6.80;99.90
15922;DHT22;8060;50.948;3.146;2024-01-16T10:38:20;6.80;99.90
15922;DHT22;8060;50.948;3.146;2024-01-16T10:41:04;7.00;99.90
15922;DHT22;8060;50.948;3.146;2024-01-16T10:43:33;7.10;99.90
15922;DHT22;8060;50.948;3.146;2024-01-16T10:46:11;7.30;99.90
15922;DHT22;8060;50.948;3.146;2024-01-16T10:48:41;7.30;99.90
15922;DHT22;8060;50.948;3.146;2024-01-16T10:51:11;7.40;99.90
15922;DHT22;8060;50.948;3.146;2024-01-16T10:53:44;7.40;99.90
15922;DHT22;8060;50.948;3.146;2024-01-16T10:56:13;7.40;99.90
15922;DHT22;8060;50.948;3.146;2024-01-16T10:58:43;7.60;99.90
15922;DHT22;8060;50.948;3.146;2024-01-16T11:01:14;7.70;99.90
15922;DHT22;8060;50.948;3.146;2024-01-16T11:03:46;7.70;99.90
15922;DHT22;8060;50.948;3.146;2024-01-16T11:06:16;8.00;99.90
15922;DHT22;8060;50.948;3.146;2024-01-16T11:08:48;8.30;99.90
15922;DHT22;8060;50.948;3.146;2024-01-16T11:11:17;8.50;99.90
15922;DHT22;8060;50.948;3.146;2024-01-16T11:13:46;8.90;99.90
15922;DHT22;8060;50.948;3.146;2024-01-16T11:16:14;9.30;99.90
15922;DHT22;8060;50.948;3.146;2024-01-16T11:18:42;9.30;99.90
15922;DHT22;8060;50.948;3.146;2024-01-16T11:21:12;9.30;99.90
15922;DHT22;8060;50.948;3.146;2024-01-16T11:23:44;9.30;99.90
15922;DHT22;8060;50.948;3.146;2024-01-16T11:26:27;9.30;99.90
15922;DHT22;8060;50.948;3.146;2024-01-16T11:28:56;9.50;99.90
15922;DHT22;8060;50.948;3.146;2024-01-16T11:31:33;9.60;99.90
15922;DHT22;8060;50.948;3.146;2024-01-16T11:34:03;9.60;99.90
15922;DHT22;8060;50.948;3.146;2024-01-16T11:36:50;9.60;99.90
15922;DHT22;8060;50.948;3.146;2024-01-16T11:39:23;9.80;99.90
15922;DHT22;8060;50.948;3.146;2024-01-16T11:41:54;10.10;99.90
15922;DHT22;8060;50.948;3.146;2024-01-16T11:44:43;10.40;99.90
15922;DHT22;8060;50.948;3.146;2024-01-16T11:47:18;10.60;99.90
15922;DHT22;8060;50.948;3.146;2024-01-16T11:49:48;10.80;99.90
15922;DHT22;8060;50.948;3.146;2024-01-16T11:52:39;10.40;99.90
15922;DHT22;8060;50.948;3.146;2024-01-16T11:55:25;10.00;99.90
15922;DHT22;8060;50.948;3.146;2024-01-16T11:58:08;10.00;99.90
15922;DHT22;8060;50.948;3.146;2024-01-16T12:00:41;9.90;99.90
15922;DHT22;8060;50.948;3.146;2024-01-16T12:03:10;9.90;99.90
15922;DHT22;8060;50.948;3.146;2024-01-16T12:05:57;10.10;99.90
15922;DHT22;8060;50.948;3.146;2024-01-16T12:08:26;10.10;99.90
15922;DHT22;8060;50.948;3.146;2024-01-16T12:10:55;10.00;99.90
15922;DHT22;8060;50.948;3.146;2024-01-16T12:13:25;10.10;99.90
15922;DHT22;8060;50.948;3.146;2024-01-16T12:15:59;10.30;99.90
15922;DHT22;8060;50.948;3.146;2024-01-16T12:18:27;10.40;99.90
15922;DHT22;8060;50.948;3.146;2024-01-16T12:21:09;10.50;99.90
15922;DHT22;8060;50.948;3.146;2024-01-16T12:23:38;10.40;99.90
15922;DHT22;8060;50.948;3.146;2024-01-16T12:26:20;10.70;99.90
15922;DHT22;8060;50.948;3.146;2024-01-16T12:28:51;10.60;99.90
15922;DHT22;8060;50.948;3.146;2024-01-16T12:31:26;10.50;99.90
15922;DHT22;8060;50.948;3.146;2024-01-16T12:34:05;10.20;99.90
15922;DHT22;8060;50.948;3.146;2024-01-16T12:36:35;10.10;99.90
15922;DHT22;8060;50.948;3.146;2024-01-16T12:39:04;10.40;99.90
15922;DHT22;8060;50.948;3.146;2024-01-16T12:41:36;10.30;99.90
15922;DHT22;8060;50.948;3.146;2024-01-16T12:44:10;10.40;99.90
15922;DHT22;8060;50.948;3.146;2024-01-16T12:46:43;10.40;99.90
15922;DHT22;8060;50.948;3.146;2024-01-16T12:49:12;10.20;99.90
15922;DHT22;8060;50.948;3.146;2024-01-16T12:51:41;10.40;99.90
15922;DHT22;8060;50.948;3.146;2024-01-16T12:54:12;10.50;99.90
15922;DHT22;8060;50.948;3.146;2024-01-16T12:56:42;10.50;99.90
15922;DHT22;8060;50.948;3.146;2024-01-16T12:59:12;10.70;99.90
15922;DHT22;8060;50.948;3.146;2024-01-16T13:01:41;10.70;99.90
15922;DHT22;8060;50.948;3.146;2024-01-16T13:04:16;10.80;99.90
15922;DHT22;8060;50.948;3.146;2024-01-16T13:06:46;10.80;99.90
15922;DHT22;8060;50.948;3.146;2024-01-16T13:09:16;10.80;99.90
15922;DHT22;8060;50.948;3.146;2024-01-16T13:11:49;10.70;99.90
15922;DHT22;8060;50.948;3.146;2024-01-16T13:14:19;10.50;99.90
15922;DHT22;8060;50.948;3.146;2024-01-16T13:16:49;10.40;99.90
15922;DHT22;8060;50.948;3.146;2024-01-16T13:19:18;10.30;99.90
15922;DHT22;8060;50.948;3.146;2024-01-16T13:21:47;10.20;99.90
15922;DHT22;8060;50.948;3.146;2024-01-16T13:24:15;10.10;99.90
15922;DHT22;8060;50.948;3.146;2024-01-16T13:26:45;10.00;99.90
15922;DHT22;8060;50.948;3.146;2024-01-16T13:29:13;9.90;99.90
15922;DHT22;8060;50.948;3.146;2024-01-16T13:31:43;9.80;99.90
15922;DHT22;8060;50.948;3.146;2024-01-16T13:34:12;9.60;99.90
15922;DHT22;8060;50.948;3.146;2024-01-16T13:36:41;9.50;99.90
15922;DHT22;8060;50.948;3.146;2024-01-16T13:39:13;9.40;99.90
15922;DHT22;8060;50.948;3.146;2024-01-16T13:41:42;9.40;99.90
15922;DHT22;8060;50.948;3.146;2024-01-16T13:44:11;9.20;99.90
15922;DHT22;8060;50.948;3.146;2024-01-16T13:46:39;9.20;99.90
15922;DHT22;8060;50.948;3.146;2024-01-16T13:49:28;9.00;99.90
15922;DHT22;8060;50.948;3.146;2024-01-16T13:51:57;8.90;99.90
15922;DHT22;8060;50.948;3.146;2024-01-16T13:54:25;8.80;99.90
15922;DHT22;8060;50.948;3.146;2024-01-16T13:56:53;8.70;99.90
15922;DHT22;8060;50.948;3.146;2024-01-16T13:59:34;8.60;99.90
15922;DHT22;8060;50.948;3.146;2024-01-16T14:02:03;8.60;99.90
15922;DHT22;8060;50.948;3.146;2024-01-16T14:04:33;8.60;99.90
15922;DHT22;8060;50.948;3.146;2024-01-16T14:07:01;8.70;99.90
15922;DHT22;8060;50.948;3.146;2024-01-16T14:09:40;8.70;99.90
15922;DHT22;8060;50.948;3.146;2024-01-16T14:12:11;8.80;99.90
15922;DHT22;8060;50.948;3.146;2024-01-16T14:14:40;8.90;99.90
15922;DHT22;8060;50.948;3.146;2024-01-16T14:17:09;9.10;99.90
15922;DHT22;8060;50.948;3.146;2024-01-16T14:19:39;9.20;99.90
15922;DHT22;8060;50.948;3.146;2024-01-16T14:22:07;9.30;99.90
15922;DHT22;8060;50.948;3.146;2024-01-16T14:24:35;9.40;99.90
15922;DHT22;8060;50.948;3.146;2024-01-16T14:27:05;9.50;99.90
15922;DHT22;8060;50.948;3.146;2024-01-16T14:29:34;9.50;99.90
15922;DHT22;8060;50.948;3.146;2024-01-16T14:32:03;9.60;99.90
15922;DHT22;8060;50.948;3.146;2024-01-16T14:34:32;9.70;99.90
15922;DHT22;8060;50.948;3.146;2024-01-16T14:37:02;10.00;99.90
15922;DHT22;8060;50.948;3.146;2024-01-16T14:39:30;10.20;99.90
15922;DHT22;8060;50.948;3.146;2024-01-16T14:41:58;10.50;99.90
15922;DHT22;8060;50.948;3.146;2024-01-16T14:44:27;10.70;99.90
15922;DHT22;8060;50.948;3.146;2024-01-16T14:46:55;10.90;99.90
15922;DHT22;8060;50.948;3.146;2024-01-16T14:49:24;10.90;99.90
15922;DHT22;8060;50.948;3.146;2024-01-16T14:51:58;10.70;99.90
15922;DHT22;8060;50.948;3.146;2024-01-16T14:54:29;10.80;99.90
15922;DHT22;8060;50.948;3.146;2024-01-16T14:56:57;10.80;99.90
15922;DHT22;8060;50.948;3.146;2024-01-16T14:59:26;11.00;99.90
15922;DHT22;8060;50.948;3.146;2024-01-16T15:01:54;11.10;99.90
15922;DHT22;8060;50.948;3.146;2024-01-16T15:04:22;11.00;99.90
15922;DHT22;8060;50.948;3.146;2024-01-16T15:06:50;10.60;99.90
15922;DHT22;8060;50.948;3.146;2024-01-16T15:09:20;10.10;99.90
15922;DHT22;8060;50.948;3.146;2024-01-16T15:11:49;9.60;99.90
15922;DHT22;8060;50.948;3.146;2024-01-16T15:14:18;9.10;99.90
15922;DHT22;8060;50.948;3.146;2024-01-16T15:16:46;8.20;99.90
15922;DHT22;8060;50.948;3.146;2024-01-16T15:19:13;7.80;99.90
15922;DHT22;8060;50.948;3.146;2024-01-16T15:21:42;7.40;99.90
15922;DHT22;8060;50.948;3.146;2024-01-16T15:24:10;7.10;99.90
15922;DHT22;8060;50.948;3.146;2024-01-16T15:26:43;6.80;99.90
15922;DHT22;8060;50.948;3.146;2024-01-16T15:29:13;6.70;99.90
15922;DHT22;8060;50.948;3.146;2024-01-16T15:31:41;6.40;99.90
15922;DHT22;8060;50.948;3.146;2024-01-16T15:34:09;6.20;99.90
15922;DHT22;8060;50.948;3.146;2024-01-16T15:36:42;6.10;99.90
15922;DHT22;8060;50.948;3.146;2024-01-16T15:39:11;5.90;99.90
15922;DHT22;8060;50.948;3.146;2024-01-16T15:41:43;5.90;99.90
15922;DHT22;8060;50.948;3.146;2024-01-16T15:44:13;5.80;99.90
15922;DHT22;8060;50.948;3.146;2024-01-16T15:46:54;5.70;99.90
15922;DHT22;8060;50.948;3.146;2024-01-16T15:49:23;5.70;99.90
15922;DHT22;8060;50.948;3.146;2024-01-16T15:51:51;5.60;99.90
15922;DHT22;8060;50.948;3.146;2024-01-16T15:54:19;5.50;99.90
15922;DHT22;8060;50.948;3.146;2024-01-16T15:56:48;5.50;99.90
15922;DHT22;8060;50.948;3.146;2024-01-16T15:59:19;5.40;99.90
15922;DHT22;8060;50.948;3.146;2024-01-16T16:01:48;5.40;99.90
15922;DHT22;8060;50.948;3.146;2024-01-16T16:04:17;5.20;99.90
15922;DHT22;8060;50.948;3.146;2024-01-16T16:06:46;5.20;99.90
15922;DHT22;8060;50.948;3.146;2024-01-16T16:09:14;5.10;99.90
15922;DHT22;8060;50.948;3.146;2024-01-16T16:11:44;5.10;99.90
15922;DHT22;8060;50.948;3.146;2024-01-16T16:14:13;5.10;99.90
15922;DHT22;8060;50.948;3.146;2024-01-16T16:16:44;5.10;99.90